createdAt,value
2019-01-08T00:04:26.096Z,3.50
2019-01-08T00:09:31.675Z,3.40
2019-01-08T00:14:57.667Z,3.20
2019-01-08T00:20:05.839Z,3.50
2019-01-08T00:25:09.446Z,3.50
2019-01-08T00:30:13.056Z,3.30
2019-01-08T00:35:19.381Z,3.50
2019-01-08T00:40:23.005Z,3.40
2019-01-08T00:45:26.599Z,3.30
2019-01-08T00:50:30.312Z,3.30
2019-01-08T00:55:35.570Z,2.90
2019-01-08T01:00:47.887Z,2.90
2019-01-08T01:05:57.006Z,3.00
2019-01-08T01:11:00.621Z,3.00
2019-01-08T01:16:07.438Z,2.90
2019-01-08T01:21:13.746Z,3.00
2019-01-08T01:26:17.349Z,3.00
2019-01-08T01:31:21.110Z,3.00
2019-01-08T01:36:24.798Z,3.00
2019-01-08T01:41:29.981Z,3.10
2019-01-08T01:46:38.427Z,3.00
2019-01-08T01:51:52.602Z,3.10
2019-01-08T01:56:56.201Z,3.10
2019-01-08T02:02:01.171Z,3.00
2019-01-08T02:07:06.413Z,3.20
2019-01-08T02:12:10.078Z,2.80
2019-01-08T02:17:24.204Z,2.60
2019-01-08T02:22:29.693Z,2.60
2019-01-08T02:27:36.098Z,2.60
2019-01-08T02:32:39.738Z,2.60
2019-01-08T02:37:46.020Z,2.60
2019-01-08T02:42:54.284Z,2.60
2019-01-08T02:47:58.054Z,2.60
2019-01-08T02:53:04.846Z,2.40
2019-01-08T02:58:08.450Z,2.40
2019-01-08T03:03:16.121Z,2.30
2019-01-08T03:08:19.724Z,2.30
2019-01-08T03:13:26.278Z,2.30
2019-01-08T03:18:32.408Z,2.40
2019-01-08T03:23:36.016Z,2.50
2019-01-08T03:28:42.426Z,2.40
2019-01-08T03:33:50.650Z,2.30
2019-01-08T03:38:56.978Z,2.30
2019-01-08T03:44:01.192Z,2.00
2019-01-08T03:49:04.886Z,2.20
2019-01-08T03:54:13.107Z,2.20
2019-01-08T03:59:18.322Z,2.20
2019-01-08T04:04:24.971Z,2.10
2019-01-08T04:14:39.982Z,2.30
2019-01-08T04:19:46.416Z,2.50
2019-01-08T04:24:52.945Z,2.40
2019-01-08T04:29:59.779Z,2.40
2019-01-08T04:35:03.470Z,2.50
2019-01-08T04:40:08.943Z,2.50
2019-01-08T04:45:12.544Z,2.40
2019-01-08T04:50:16.166Z,2.50
2019-01-08T04:55:20.232Z,2.50
2019-01-08T05:00:23.839Z,2.40
2019-01-08T05:05:30.119Z,2.40
2019-01-08T05:11:00.504Z,2.30
2019-01-08T05:16:07.525Z,2.40
2019-01-08T05:21:14.245Z,2.50
2019-01-08T05:26:17.791Z,2.40
2019-01-08T05:31:21.406Z,2.70
2019-01-08T05:36:25.040Z,2.60
2019-01-08T05:41:28.667Z,2.50
2019-01-08T05:46:35.260Z,2.60
2019-01-08T05:51:41.821Z,2.70
2019-01-08T05:56:48.395Z,2.60
2019-01-08T06:01:55.412Z,2.60
2019-01-08T06:06:58.949Z,2.60
2019-01-08T06:12:05.235Z,2.70
2019-01-08T06:17:11.326Z,2.60
2019-01-08T06:22:14.927Z,2.70
2019-01-08T06:27:18.559Z,2.80
2019-01-08T06:32:23.819Z,2.70
2019-01-08T06:37:27.431Z,2.90
2019-01-08T06:42:32.958Z,2.70
2019-01-08T06:47:38.003Z,2.80
2019-01-08T06:52:43.273Z,2.80
2019-01-08T06:57:46.885Z,2.80
2019-01-08T07:02:50.496Z,2.70
2019-01-08T07:07:56.774Z,2.80
2019-01-08T07:13:03.599Z,3.00
2019-01-08T07:18:15.852Z,2.90
2019-01-08T07:23:26.511Z,2.90
2019-01-08T07:28:32.077Z,2.80
2019-01-08T07:33:39.755Z,2.80
2019-01-08T07:38:43.381Z,2.70
2019-01-08T07:43:46.975Z,2.80
2019-01-08T07:48:53.658Z,2.70
2019-01-08T07:54:06.322Z,2.90
2019-01-08T07:59:09.941Z,2.90
2019-01-08T08:04:19.568Z,2.90
2019-01-08T08:09:32.055Z,3.00
2019-01-08T08:14:38.190Z,3.20
2019-01-08T08:19:41.850Z,3.30
2019-01-08T08:24:48.186Z,3.30
2019-01-08T08:29:51.963Z,3.30
2019-01-08T08:34:55.582Z,3.20
2019-01-08T08:39:59.191Z,3.30
2019-01-08T08:45:02.816Z,3.40
2019-01-08T08:50:07.118Z,3.60
2019-01-08T08:55:12.348Z,3.40
2019-01-08T09:00:18.915Z,3.30
2019-01-08T09:05:25.663Z,3.50
2019-01-08T09:10:30.979Z,3.60
2019-01-08T09:15:37.067Z,3.60
2019-01-08T09:20:43.344Z,3.60
2019-01-08T09:25:46.959Z,3.60
2019-01-08T09:30:53.239Z,3.70
2019-01-08T09:36:00.637Z,3.70
2019-01-08T09:41:14.873Z,3.50
2019-01-08T09:46:18.564Z,3.60
2019-01-08T09:51:27.329Z,3.60
2019-01-08T09:56:31.014Z,3.70
2019-01-08T10:01:37.407Z,3.70
2019-01-08T10:06:41.071Z,3.70
2019-01-08T10:11:46.325Z,3.70
2019-01-08T10:16:51.575Z,3.90
2019-01-08T10:22:01.001Z,3.90
2019-01-08T10:27:03.720Z,3.80
2019-01-08T10:32:09.190Z,3.80
2019-01-08T10:37:14.438Z,3.90
2019-01-08T10:42:18.058Z,3.90
2019-01-08T10:47:24.396Z,4.00
2019-01-08T10:52:28.001Z,4.00
2019-01-08T10:57:31.694Z,3.90
2019-01-08T11:02:35.322Z,4.10
2019-01-08T11:07:38.995Z,4.20
2019-01-08T11:12:45.311Z,4.20
2019-01-08T11:17:50.564Z,4.20
2019-01-08T11:22:54.185Z,4.30
2019-01-08T11:27:57.864Z,4.50
2019-01-08T11:33:05.107Z,4.30
2019-01-08T11:38:08.738Z,4.20
2019-01-08T11:43:19.026Z,4.30
2019-01-08T11:48:23.394Z,4.40
2019-01-08T11:53:27.028Z,4.60
2019-01-08T11:58:36.170Z,4.60
2019-01-08T12:03:41.484Z,4.70
2019-01-08T12:08:50.118Z,4.80
2019-01-08T12:13:56.226Z,4.90
2019-01-08T12:18:59.851Z,5.10
2019-01-08T12:24:05.113Z,5.00
2019-01-08T12:29:10.443Z,5.00
2019-01-08T12:34:14.150Z,5.10
2019-01-08T12:39:19.454Z,5.10
2019-01-08T12:44:25.791Z,5.00
2019-01-08T12:49:29.402Z,4.90
2019-01-08T12:54:40.760Z,4.90
2019-01-08T12:59:44.654Z,4.90
2019-01-08T13:04:51.194Z,4.80
2019-01-08T13:09:54.803Z,4.60
2019-01-08T13:14:59.334Z,4.70
2019-01-08T13:20:05.781Z,5.10
2019-01-08T13:25:09.445Z,5.00
2019-01-08T13:30:13.115Z,4.80
2019-01-08T13:35:19.488Z,4.90
2019-01-08T13:40:25.322Z,5.00
2019-01-08T13:45:28.694Z,5.10
2019-01-08T13:50:36.274Z,4.90
2019-01-08T13:55:41.515Z,5.10
2019-01-08T14:00:46.852Z,5.50
2019-01-08T14:05:50.484Z,6.00
2019-01-08T14:10:56.988Z,6.50
2019-01-08T14:16:00.600Z,6.50
2019-01-08T14:21:06.742Z,6.50
2019-01-08T14:26:12.878Z,7.30
2019-01-08T14:31:19.704Z,7.30
2019-01-08T14:36:23.954Z,7.50
2019-01-08T14:41:27.561Z,7.50
2019-01-08T14:46:31.278Z,7.50
2019-01-08T14:51:35.161Z,7.70
2019-01-08T14:56:38.822Z,6.70
2019-01-08T15:01:44.015Z,6.10
2019-01-08T15:06:51.850Z,6.30
2019-01-08T15:11:57.946Z,6.00
2019-01-08T15:17:08.289Z,6.20
2019-01-08T15:22:15.076Z,6.00
2019-01-08T15:27:19.630Z,5.50
2019-01-08T15:32:23.341Z,5.30
2019-01-08T15:37:26.950Z,5.20
2019-01-08T15:42:30.568Z,5.10
2019-01-08T15:47:34.307Z,4.90
2019-01-08T15:52:38.013Z,5.00
2019-01-08T15:57:41.601Z,5.00
2019-01-08T16:02:45.220Z,4.90
2019-01-08T16:07:48.953Z,4.90
2019-01-08T16:12:54.509Z,4.90
2019-01-08T16:17:58.124Z,4.90
2019-01-08T16:23:04.672Z,5.30
2019-01-08T16:28:08.386Z,5.00
2019-01-08T16:33:16.077Z,5.00
2019-01-08T16:38:20.046Z,5.00
2019-01-08T16:43:29.711Z,5.00
2019-01-08T16:48:36.810Z,5.10
2019-01-08T16:53:44.414Z,4.90
2019-01-08T16:58:59.843Z,4.90
2019-01-08T17:04:03.487Z,4.80
2019-01-08T17:09:07.135Z,4.80
2019-01-08T17:14:16.700Z,4.80
2019-01-08T17:19:20.368Z,4.90
2019-01-08T17:24:29.231Z,4.70
2019-01-08T17:29:36.062Z,4.70
2019-01-08T17:34:39.945Z,4.70
2019-01-08T17:39:46.511Z,4.60
2019-01-08T17:44:55.939Z,4.60
2019-01-08T17:50:01.065Z,4.60
2019-01-08T17:55:08.086Z,4.70
2019-01-08T18:00:41.811Z,4.60
2019-01-08T18:05:17.995Z,4.50
2019-01-08T18:10:24.338Z,4.50
2019-01-08T18:15:30.656Z,4.50
2019-01-08T18:20:34.276Z,4.40
2019-01-08T18:25:40.902Z,4.40
2019-01-08T18:30:44.735Z,4.40
2019-01-08T18:35:50.894Z,4.40
2019-01-08T18:40:54.492Z,4.30
2019-01-08T18:46:01.112Z,4.30
2019-01-08T18:51:13.538Z,4.30
2019-01-08T18:56:19.319Z,4.30
2019-01-08T19:01:22.928Z,4.10
2019-01-08T19:06:26.555Z,4.20
2019-01-08T19:11:30.359Z,4.20
2019-01-08T19:16:38.459Z,4.20
2019-01-08T19:21:44.326Z,4.20
2019-01-08T19:26:51.063Z,4.30
2019-01-08T19:31:54.706Z,4.30
2019-01-08T19:37:01.299Z,4.20
2019-01-08T19:42:04.980Z,4.10
2019-01-08T19:47:13.027Z,4.20
2019-01-08T19:52:19.416Z,4.10
2019-01-08T19:57:23.144Z,4.20
2019-01-08T20:02:29.412Z,4.20
2019-01-08T20:07:35.474Z,4.20
2019-01-08T20:12:43.490Z,4.10
2019-01-08T20:17:50.185Z,3.90
2019-01-08T20:22:58.755Z,3.90
2019-01-08T20:28:02.712Z,3.80
2019-01-08T20:33:06.363Z,4.00
2019-01-08T20:38:17.605Z,3.90
2019-01-08T20:43:21.794Z,4.00
2019-01-08T20:48:25.445Z,4.10
2019-01-08T20:53:30.782Z,4.20
2019-01-08T20:58:34.414Z,4.10
2019-01-08T21:03:38.094Z,4.10
2019-01-08T21:08:41.710Z,3.90
2019-01-08T21:13:46.989Z,4.00
2019-01-08T21:18:53.353Z,4.00
2019-01-08T21:23:56.957Z,4.20
2019-01-08T21:29:06.167Z,4.20
2019-01-08T21:34:10.608Z,4.00
2019-01-08T21:39:16.104Z,4.00
2019-01-08T21:44:22.383Z,4.00
2019-01-08T21:49:25.986Z,4.00
2019-01-08T21:54:35.336Z,3.90
2019-01-08T21:59:41.726Z,3.80
2019-01-08T22:04:52.918Z,3.80
2019-01-08T22:09:50.678Z,3.60
2019-01-08T22:14:55.927Z,3.70
2019-01-08T22:20:02.488Z,3.70
2019-01-08T22:25:06.354Z,3.70
2019-01-08T22:30:12.550Z,3.80
2019-01-08T22:35:16.980Z,3.80
2019-01-08T22:40:22.484Z,3.90
2019-01-08T22:45:27.495Z,3.80
2019-01-08T22:50:31.150Z,3.90
2019-01-08T22:55:35.114Z,3.80
2019-01-08T23:00:52.658Z,4.00
2019-01-08T23:06:04.126Z,3.70
2019-01-08T23:11:22.385Z,3.70
2019-01-08T23:16:27.687Z,3.60
2019-01-08T23:21:34.282Z,3.70
2019-01-08T23:26:39.532Z,3.80
2019-01-08T23:31:43.227Z,3.70
2019-01-08T23:36:46.925Z,3.80
2019-01-08T23:41:50.662Z,3.60
2019-01-08T23:47:02.784Z,3.50
2019-01-08T23:52:08.903Z,3.50
2019-01-08T23:57:16.986Z,3.30
